ADDS METAR Data INFO
IDs: Format: Raw Decoded Include TAF

Data at: 1917 UTC 23 Apr 2018

KAEG 231847Z 13005G14KT 10SM FEW150 22/M03 A3016
KAEG 231747Z VRB05KT 10SM FEW150 20/M01 A3020
KAEG 231647Z VRB05KT 10SM FEW150 18/00 A3021
KAEG 231547Z VRB05KT 10SM SKC 16/01 A3021
KAEG 231447Z VRB05KT 10SM FEW150 14/01 A3021
KAEG 231347Z COR 02004KT 10SM FEW150 11/01 A3020
KAEG 231247Z 35004KT 10SM FEW130 05/M02 A3017
KAEG 231147Z 31004KT 10SM SKC 03/M04 A3017
KAEG 230347Z 20009KT 10SM SKC 14/M04 A3012
KAEG 230247Z 21007KT 10SM SKC 13/M04 A3010
KAEG 230147Z 17009KT 10SM SCT150 18/M03 A3008
KAEG 230047Z 15012G17KT 10SM SCT080 BKN150 21/M03 A3006
KAEG 222247Z VRB05KT 10SM SCT080 BKN150 22/M06 A3008
KAEG 222147Z 13008KT 10SM SCT080 BKN150 22/M06 A3010
KAEG 222047Z 17007G14KT 10SM BKN150 21/M06 A3014
KAEG 221947Z 00000KT 10SM BKN150 19/M05 A3015
KAEG 221847Z VRB05KT 10SM SCT150 17/M02 A3018
KAEG 221747Z 03005KT 10SM SCT150 17/M02 A3020
KAEG 221647Z 04009KT 10SM FEW150 15/M01 A3022
KAEG 221547Z 02010KT 10SM FEW150 12/M01 A3022
KAEG 221447Z 02010KT 10SM SKC 09/M02 A3022
KAEG 221347Z 32010KT 10SM SKC 07/M02 A3021
KAEG 221247Z 32006KT 10SM FEW150 02/M02 A3021
KAEG 221147Z 34006KT 10SM SKC 03/00 A3020